createdAt,value
2023-02-23T00:01:23.076Z,23.80
2023-02-23T00:03:30.234Z,22.83
2023-02-23T00:05:40.512Z,22.05
2023-02-23T00:07:48.047Z,27.52
2023-02-23T00:09:56.202Z,24.42
2023-02-23T00:12:08.584Z,24.35
2023-02-23T00:14:15.940Z,22.00
2023-02-23T00:16:24.952Z,22.50
2023-02-23T00:18:32.146Z,28.35
2023-02-23T00:20:46.348Z,25.30
2023-02-23T00:22:54.757Z,25.50
2023-02-23T00:25:02.455Z,26.63
2023-02-23T00:27:11.064Z,26.10
2023-02-23T00:29:19.991Z,31.95
2023-02-23T00:31:28.853Z,34.78
2023-02-23T00:33:37.218Z,31.77
2023-02-23T00:35:46.349Z,33.72
2023-02-23T00:37:53.332Z,37.35
2023-02-23T00:40:00.766Z,35.35
2023-02-23T00:42:08.660Z,33.42
2023-02-23T00:44:16.660Z,31.90
2023-02-23T00:46:25.075Z,35.60
2023-02-23T00:48:32.408Z,31.83
2023-02-23T00:50:42.609Z,35.15
2023-02-23T00:52:51.840Z,35.28
2023-02-23T00:54:58.975Z,35.85
2023-02-23T00:57:06.361Z,31.90
2023-02-23T00:59:13.747Z,33.28
2023-02-23T01:01:22.048Z,27.52
2023-02-23T01:03:31.029Z,29.58
2023-02-23T01:05:39.090Z,31.27
2023-02-23T01:07:47.739Z,29.02
2023-02-23T01:09:56.868Z,29.33
2023-02-23T01:12:08.348Z,34.13
2023-02-23T01:14:15.271Z,29.73
2023-02-23T01:16:24.245Z,31.73
2023-02-23T01:18:31.205Z,27.92
2023-02-23T01:20:42.665Z,27.50
2023-02-23T01:22:52.606Z,29.67
2023-02-23T01:25:01.681Z,30.95
2023-02-23T01:27:08.701Z,28.60
2023-02-23T01:29:18.174Z,32.40
2023-02-23T01:31:25.845Z,30.85
2023-02-23T01:33:33.116Z,29.85
2023-02-23T01:35:40.859Z,29.08
2023-02-23T01:37:48.451Z,26.75
2023-02-23T01:39:55.529Z,38.30
2023-02-23T01:42:06.398Z,32.35
2023-02-23T01:44:51.470Z,30.02
2023-02-23T01:46:59.430Z,23.38
2023-02-23T01:49:07.115Z,30.30
2023-02-23T01:51:17.023Z,31.25
2023-02-23T01:53:25.213Z,31.35
2023-02-23T01:55:33.576Z,28.80
2023-02-23T01:57:42.750Z,28.40
2023-02-23T01:59:51.877Z,29.33
2023-02-23T02:02:01.669Z,27.27
2023-02-23T02:04:09.157Z,26.95
2023-02-23T02:06:18.798Z,27.90
2023-02-23T02:08:27.771Z,27.20
2023-02-23T02:10:46.935Z,27.83
2023-02-23T02:13:00.008Z,28.25
2023-02-23T02:15:09.642Z,27.15
2023-02-23T02:17:31.160Z,24.98
2023-02-23T02:20:14.755Z,28.40
2023-02-23T02:22:49.217Z,30.50
2023-02-23T02:25:34.646Z,24.25
2023-02-23T02:28:10.449Z,24.75
2023-02-23T02:30:46.637Z,25.38
2023-02-23T02:33:33.068Z,23.55
2023-02-23T02:36:18.798Z,21.50
2023-02-23T02:38:51.783Z,27.40
2023-02-23T02:41:05.210Z,30.75
2023-02-23T02:43:19.975Z,29.88
2023-02-23T02:45:31.762Z,27.83
2023-02-23T02:49:53.705Z,27.20
2023-02-23T02:52:09.030Z,24.60
2023-02-23T02:54:26.449Z,21.60
2023-02-23T02:56:34.605Z,24.23
2023-02-23T02:58:44.605Z,28.75
2023-02-23T03:01:09.843Z,24.75
2023-02-23T03:03:51.604Z,29.42
2023-02-23T03:06:16.093Z,21.35
2023-02-23T03:08:43.698Z,18.67
2023-02-23T03:11:16.693Z,17.63
2023-02-23T03:13:53.049Z,20.60
2023-02-23T03:16:33.206Z,34.22
2023-02-23T03:19:18.633Z,18.58
2023-02-23T03:21:47.526Z,20.77
2023-02-23T03:24:20.101Z,19.13
2023-02-23T03:26:55.908Z,19.02
2023-02-23T03:29:28.437Z,17.45
2023-02-23T03:32:00.487Z,21.15
2023-02-23T03:34:30.903Z,19.65
2023-02-23T03:36:58.994Z,21.98
2023-02-23T03:39:30.700Z,21.10
2023-02-23T03:42:00.169Z,18.13
2023-02-23T03:44:29.199Z,19.80
2023-02-23T03:46:55.030Z,18.17
2023-02-23T03:49:22.021Z,17.00
2023-02-23T03:51:47.628Z,20.08
2023-02-23T03:54:13.762Z,18.85
2023-02-23T03:56:40.753Z,18.88
2023-02-23T03:59:10.929Z,17.65
2023-02-23T04:01:38.010Z,14.93
2023-02-23T04:04:04.142Z,20.85
2023-02-23T04:06:31.188Z,20.33
2023-02-23T04:08:57.670Z,19.02
2023-02-23T04:11:29.895Z,19.23
2023-02-23T04:13:38.816Z,19.73
2023-02-23T04:15:53.007Z,17.52
2023-02-23T04:18:00.599Z,20.08
2023-02-23T04:20:09.218Z,19.98
2023-02-23T04:22:16.497Z,21.88
2023-02-23T04:24:23.884Z,19.90
2023-02-23T04:26:31.066Z,18.90
2023-02-23T04:28:38.097Z,20.20
2023-02-23T04:30:47.140Z,20.63
2023-02-23T04:32:54.096Z,18.77
2023-02-23T04:35:01.696Z,18.00
2023-02-23T04:37:08.716Z,12.82
2023-02-23T04:39:16.364Z,15.18
2023-02-23T04:41:23.339Z,13.43
2023-02-23T04:43:30.673Z,16.98
2023-02-23T04:45:37.817Z,17.42
2023-02-23T04:47:46.694Z,13.65
2023-02-23T04:49:53.601Z,15.35
2023-02-23T04:52:00.938Z,16.25
2023-02-23T04:54:08.119Z,17.48
2023-02-23T04:56:15.249Z,16.50
2023-02-23T04:58:22.122Z,18.75
2023-02-23T05:00:30.474Z,15.32
2023-02-23T05:02:37.475Z,13.32
2023-02-23T05:04:46.475Z,12.57
2023-02-23T05:06:53.665Z,14.00
2023-02-23T05:09:01.111Z,14.80
2023-02-23T05:11:09.776Z,12.55
2023-02-23T05:13:17.373Z,11.93
2023-02-23T05:15:24.293Z,14.15
2023-02-23T05:17:31.508Z,13.82
2023-02-23T05:19:38.548Z,13.73
2023-02-23T05:21:47.572Z,13.65
2023-02-23T05:23:54.752Z,13.98
2023-02-23T05:26:07.364Z,14.02
2023-02-23T05:28:14.360Z,14.25
2023-02-23T05:30:21.982Z,17.27
2023-02-23T05:32:28.976Z,15.48
2023-02-23T05:34:36.398Z,13.63
2023-02-23T05:36:43.268Z,21.75
2023-02-23T05:38:52.451Z,15.65
2023-02-23T05:40:59.320Z,15.07
2023-02-23T05:43:06.399Z,15.77
2023-02-23T05:45:13.476Z,19.00
2023-02-23T05:47:20.815Z,13.27
2023-02-23T05:49:27.843Z,15.35
2023-02-23T05:51:37.277Z,16.50
2023-02-23T05:53:44.661Z,14.60
2023-02-23T05:55:53.738Z,14.52
2023-02-23T05:58:00.713Z,15.13
2023-02-23T06:00:10.051Z,15.13
2023-02-23T06:02:16.989Z,15.63
2023-02-23T06:04:24.363Z,13.25
2023-02-23T06:06:31.544Z,13.45
2023-02-23T06:08:38.723Z,15.30
2023-02-23T06:10:45.602Z,14.27
2023-02-23T06:12:54.419Z,13.77
2023-02-23T06:15:01.814Z,15.75
2023-02-23T06:17:09.350Z,12.18
2023-02-23T06:19:16.290Z,15.00
2023-02-23T06:21:23.967Z,14.18
2023-02-23T06:23:31.508Z,15.13
2023-02-23T06:25:38.943Z,14.73
2023-02-23T06:27:46.590Z,14.93
2023-02-23T06:29:55.713Z,15.43
2023-02-23T06:32:02.932Z,13.60
2023-02-23T06:34:10.284Z,15.93
2023-02-23T06:36:17.674Z,13.52
2023-02-23T06:38:27.153Z,15.75
2023-02-23T06:40:34.077Z,12.00
2023-02-23T06:42:41.568Z,13.43
2023-02-23T06:44:48.597Z,15.43
2023-02-23T06:46:57.746Z,14.55
2023-02-23T06:49:04.700Z,18.05
2023-02-23T06:51:11.934Z,13.02
2023-02-23T06:53:19.371Z,13.50
2023-02-23T06:55:26.809Z,11.65
2023-02-23T06:57:33.784Z,13.43
2023-02-23T06:59:41.067Z,15.75
2023-02-23T07:01:48.052Z,13.00
2023-02-23T07:03:57.145Z,14.18
2023-02-23T07:06:05.784Z,14.05
2023-02-23T07:08:12.862Z,13.48
2023-02-23T07:10:20.657Z,13.27
2023-02-23T07:12:27.945Z,13.48
2023-02-23T07:14:35.378Z,11.23
2023-02-23T07:16:43.037Z,14.80
2023-02-23T07:18:50.051Z,14.55
2023-02-23T07:20:59.049Z,15.95
2023-02-23T07:23:05.998Z,14.32
2023-02-23T07:25:13.750Z,14.05
2023-02-23T07:27:20.622Z,12.52
2023-02-23T07:29:29.234Z,13.07
2023-02-23T07:31:36.232Z,16.80
2023-02-23T07:33:43.440Z,11.65
2023-02-23T07:35:50.318Z,15.40
2023-02-23T07:37:59.395Z,12.50
2023-02-23T07:40:07.039Z,15.35
2023-02-23T07:42:14.270Z,19.17
2023-02-23T07:44:21.198Z,13.00
2023-02-23T07:46:28.640Z,14.10
2023-02-23T07:48:36.125Z,16.50
2023-02-23T07:50:44.449Z,15.68
2023-02-23T07:52:51.736Z,16.02
2023-02-23T07:55:00.589Z,17.80
2023-02-23T07:57:07.469Z,15.55
2023-02-23T07:59:15.271Z,16.73
2023-02-23T08:01:22.499Z,16.55
2023-02-23T08:03:29.931Z,16.27
2023-02-23T08:05:37.729Z,16.92
2023-02-23T08:07:45.065Z,14.40
2023-02-23T08:09:52.552Z,16.55
2023-02-23T08:12:01.534Z,13.45
2023-02-23T08:14:08.500Z,15.98
2023-02-23T08:16:17.440Z,14.98
2023-02-23T08:18:24.480Z,15.38
2023-02-23T08:20:33.324Z,16.65
2023-02-23T08:22:49.390Z,18.10
2023-02-23T08:24:57.061Z,18.80
2023-02-23T08:27:06.337Z,15.65
2023-02-23T08:29:13.932Z,15.95
2023-02-23T08:31:25.285Z,14.77
2023-02-23T08:33:33.283Z,14.93
2023-02-23T08:35:40.340Z,14.75
2023-02-23T08:37:48.083Z,16.83
2023-02-23T08:39:55.007Z,13.57
2023-02-23T08:42:03.982Z,16.27
2023-02-23T08:44:11.069Z,14.88
2023-02-23T08:46:21.235Z,15.88
2023-02-23T08:48:28.216Z,16.65
2023-02-23T08:50:35.367Z,14.98
2023-02-23T08:52:42.665Z,15.35
2023-02-23T08:54:50.241Z,12.32
2023-02-23T08:57:00.597Z,17.50
2023-02-23T08:59:09.685Z,15.25
2023-02-23T09:01:24.542Z,17.00
2023-02-23T09:03:32.960Z,15.27
2023-02-23T09:05:41.429Z,14.48
2023-02-23T09:07:50.225Z,17.08
2023-02-23T09:10:01.145Z,12.60
2023-02-23T09:12:08.787Z,15.00
2023-02-23T09:14:17.970Z,17.05
2023-02-23T09:16:25.095Z,14.82
2023-02-23T09:18:33.663Z,16.58
2023-02-23T09:20:42.075Z,21.13
2023-02-23T09:22:55.188Z,18.13
2023-02-23T09:25:02.475Z,17.70
2023-02-23T09:27:13.599Z,13.98
2023-02-23T09:29:22.674Z,13.80
2023-02-23T09:31:29.981Z,15.32
2023-02-23T09:33:37.402Z,17.75
2023-02-23T09:35:44.528Z,17.17
2023-02-23T09:37:52.886Z,19.77
2023-02-23T09:39:59.800Z,16.40
2023-02-23T09:42:23.279Z,16.92
2023-02-23T09:44:56.159Z,17.05
2023-02-23T09:47:13.900Z,16.67
2023-02-23T09:49:25.630Z,15.30
2023-02-23T09:51:36.027Z,21.98
2023-02-23T09:53:46.801Z,17.63
2023-02-23T09:55:56.542Z,19.13
2023-02-23T09:58:11.764Z,18.80
2023-02-23T10:00:26.369Z,20.20
2023-02-23T10:02:37.958Z,15.57
2023-02-23T10:04:49.666Z,18.52
2023-02-23T10:07:03.788Z,20.20
2023-02-23T10:09:22.134Z,18.85
2023-02-23T10:11:33.130Z,17.13
2023-02-23T10:13:51.705Z,17.67
2023-02-23T10:16:04.173Z,15.63
2023-02-23T10:18:33.221Z,15.70
2023-02-23T10:20:53.746Z,21.83
2023-02-23T10:23:06.565Z,13.77
2023-02-23T10:25:16.612Z,16.38
2023-02-23T10:27:26.096Z,15.30
2023-02-23T10:29:37.834Z,18.70
2023-02-23T10:31:50.584Z,19.90
2023-02-23T10:34:01.309Z,18.77
2023-02-23T10:36:19.709Z,16.15
2023-02-23T10:38:26.682Z,16.63
2023-02-23T10:40:37.445Z,14.35
2023-02-23T10:42:44.630Z,16.83
2023-02-23T10:44:52.786Z,24.30
2023-02-23T10:47:04.664Z,20.83
2023-02-23T10:49:23.582Z,18.58
2023-02-23T10:51:39.632Z,16.15
2023-02-23T10:53:46.858Z,16.20
2023-02-23T10:56:08.242Z,16.33
2023-02-23T10:58:19.650Z,16.63
2023-02-23T11:00:34.155Z,17.35
2023-02-23T11:02:43.843Z,17.35
2023-02-23T11:04:57.126Z,14.27
2023-02-23T11:07:24.407Z,19.90
2023-02-23T11:09:46.188Z,17.52
2023-02-23T11:12:01.565Z,20.38
2023-02-23T11:14:20.725Z,18.42
2023-02-23T11:16:30.005Z,24.67
2023-02-23T11:18:39.393Z,25.05
2023-02-23T11:20:47.185Z,21.88
2023-02-23T11:22:55.758Z,25.75
2023-02-23T11:25:17.782Z,24.13
2023-02-23T11:27:27.246Z,25.10
2023-02-23T11:29:37.880Z,29.00
2023-02-23T11:31:52.098Z,27.33
2023-02-23T11:34:01.968Z,24.10
2023-02-23T11:36:21.197Z,23.42
2023-02-23T11:38:29.800Z,26.23
2023-02-23T11:40:37.538Z,37.53
2023-02-23T11:42:56.344Z,36.95
2023-02-23T11:45:08.988Z,31.10
2023-02-23T11:47:21.817Z,33.08
2023-02-23T11:49:34.327Z,34.88
2023-02-23T11:51:43.307Z,26.90
2023-02-23T11:53:51.065Z,27.02
2023-02-23T11:56:03.718Z,31.50
2023-02-23T11:58:23.691Z,30.30
2023-02-23T12:00:31.841Z,31.13
2023-02-23T12:02:51.570Z,34.70
2023-02-23T12:05:10.758Z,36.80
2023-02-23T12:07:42.642Z,28.25
2023-02-23T12:09:52.692Z,33.10
2023-02-23T12:12:10.114Z,32.25
2023-02-23T12:14:28.925Z,33.25
2023-02-23T12:16:41.654Z,29.67
2023-02-23T12:18:56.035Z,31.65
2023-02-23T12:21:13.399Z,31.17
2023-02-23T12:23:25.716Z,27.08
2023-02-23T12:25:38.118Z,28.58
2023-02-23T12:27:48.772Z,26.33
2023-02-23T12:30:09.124Z,29.42
2023-02-23T12:32:21.308Z,33.65
2023-02-23T12:34:34.068Z,25.38
2023-02-23T12:36:46.791Z,30.25
2023-02-23T12:38:59.391Z,33.78
2023-02-23T12:41:12.819Z,38.38
2023-02-23T12:43:26.141Z,41.33
2023-02-23T12:45:39.184Z,39.00
2023-02-23T12:47:52.534Z,32.08
2023-02-23T12:50:13.830Z,39.95
2023-02-23T12:52:27.127Z,30.98
2023-02-23T12:54:35.992Z,38.08
2023-02-23T12:57:05.189Z,36.90
2023-02-23T12:59:34.340Z,37.95
2023-02-23T13:01:45.977Z,34.72
2023-02-23T13:06:26.044Z,34.50
2023-02-23T13:08:49.765Z,34.65
2023-02-23T13:11:07.543Z,33.35
2023-02-23T13:13:25.745Z,33.25
2023-02-23T13:15:47.764Z,34.08
2023-02-23T13:18:02.651Z,32.38
2023-02-23T13:20:19.237Z,39.65
2023-02-23T13:22:35.527Z,36.67
2023-02-23T13:24:49.364Z,39.08
2023-02-23T13:27:02.894Z,35.00
2023-02-23T13:29:25.651Z,38.70
2023-02-23T13:31:36.316Z,37.90
2023-02-23T13:33:44.610Z,46.72
2023-02-23T13:35:51.945Z,41.85
2023-02-23T13:38:04.975Z,35.83
2023-02-23T13:40:31.205Z,34.83
2023-02-23T13:42:48.515Z,37.42
2023-02-23T13:45:02.089Z,31.75
2023-02-23T13:47:17.820Z,36.13
2023-02-23T13:49:37.700Z,40.83
2023-02-23T13:51:49.849Z,38.70
2023-02-23T13:54:05.327Z,44.00
2023-02-23T13:56:18.653Z,47.88
2023-02-23T13:58:33.006Z,40.63
2023-02-23T14:00:40.030Z,44.58
2023-02-23T14:02:49.511Z,40.30
2023-02-23T14:04:59.922Z,39.40
2023-02-23T14:07:19.901Z,39.40
2023-02-23T14:09:33.024Z,37.88
2023-02-23T14:11:52.287Z,38.95
2023-02-23T14:14:03.670Z,49.03
2023-02-23T14:16:17.590Z,50.35
2023-02-23T14:18:35.954Z,37.63
2023-02-23T14:20:58.253Z,50.63
2023-02-23T14:25:48.753Z,36.33
2023-02-23T14:28:07.760Z,43.63
2023-02-23T14:30:26.466Z,42.88
2023-02-23T14:32:40.700Z,43.78
2023-02-23T14:34:51.233Z,42.00
2023-02-23T14:36:58.557Z,40.22
2023-02-23T14:39:10.279Z,45.85
2023-02-23T14:41:17.565Z,44.63
2023-02-23T14:43:47.394Z,47.70
2023-02-23T14:45:58.907Z,45.00
2023-02-23T14:48:09.379Z,44.58
2023-02-23T14:50:21.376Z,52.17
2023-02-23T14:52:30.842Z,47.78
2023-02-23T14:54:39.628Z,46.95
2023-02-23T14:56:53.985Z,44.83
2023-02-23T14:59:03.049Z,42.13
2023-02-23T15:01:09.975Z,45.70
2023-02-23T15:03:17.156Z,52.15
2023-02-23T15:05:28.487Z,51.92
2023-02-23T15:07:39.968Z,47.63
2023-02-23T15:09:48.192Z,50.38
2023-02-23T15:11:56.787Z,48.30
2023-02-23T15:14:07.381Z,47.28
2023-02-23T15:16:22.724Z,48.17
2023-02-23T15:18:34.102Z,52.25
2023-02-23T15:20:41.542Z,50.60
2023-02-23T15:22:51.543Z,48.80
2023-02-23T15:25:02.046Z,52.85
2023-02-23T15:27:08.974Z,54.03
2023-02-23T15:29:20.046Z,52.75
2023-02-23T15:31:27.028Z,54.55
2023-02-23T15:33:34.615Z,45.30
2023-02-23T15:35:48.515Z,50.40
2023-02-23T15:38:05.868Z,52.67
2023-02-23T15:40:24.426Z,47.55
2023-02-23T15:42:37.507Z,44.45
2023-02-23T15:44:46.468Z,51.25
2023-02-23T15:46:57.538Z,49.67
2023-02-23T15:49:06.410Z,54.60
2023-02-23T15:51:27.495Z,49.17
2023-02-23T15:53:39.360Z,49.72
2023-02-23T15:55:47.362Z,56.03
2023-02-23T15:57:59.922Z,53.72
2023-02-23T16:00:20.630Z,53.45
2023-02-23T16:02:28.981Z,58.97
2023-02-23T16:04:43.279Z,51.58
2023-02-23T16:06:55.153Z,49.42
2023-02-23T16:09:04.191Z,47.47
2023-02-23T16:11:16.092Z,45.47
2023-02-23T16:13:25.269Z,55.50
2023-02-23T16:15:38.696Z,47.97
2023-02-23T16:17:48.848Z,49.47
2023-02-23T16:19:57.655Z,52.72
2023-02-23T16:22:04.592Z,55.30
2023-02-23T16:24:23.243Z,53.88
2023-02-23T16:26:34.060Z,55.40
2023-02-23T16:28:46.442Z,49.95
2023-02-23T16:33:13.978Z,50.58
2023-02-23T16:35:22.706Z,54.03
2023-02-23T16:37:29.892Z,50.65
2023-02-23T16:39:36.760Z,55.17
2023-02-23T16:41:44.151Z,57.53
2023-02-23T16:43:52.920Z,57.22
2023-02-23T16:46:02.204Z,53.75
2023-02-23T16:48:12.662Z,54.13
2023-02-23T16:50:21.995Z,57.42
2023-02-23T16:52:28.963Z,49.28
2023-02-23T16:54:36.147Z,49.67
2023-02-23T16:56:43.635Z,50.80
2023-02-23T16:58:54.810Z,52.58
2023-02-23T17:01:03.639Z,54.97
2023-02-23T17:03:16.474Z,50.67
2023-02-23T17:05:26.286Z,49.60
2023-02-23T17:07:33.215Z,57.80
2023-02-23T17:09:40.396Z,53.15
2023-02-23T17:11:48.038Z,51.28
2023-02-23T17:13:55.228Z,51.40
2023-02-23T17:16:05.525Z,57.17
2023-02-23T17:18:12.808Z,51.63
2023-02-23T17:20:22.500Z,54.85
2023-02-23T17:22:30.141Z,52.72
2023-02-23T17:24:37.373Z,49.78
2023-02-23T17:26:44.553Z,53.05
2023-02-23T17:28:52.295Z,57.85
2023-02-23T17:30:59.259Z,57.97
2023-02-23T17:33:09.591Z,49.15
2023-02-23T17:35:16.658Z,54.92
2023-02-23T17:37:23.842Z,48.42
2023-02-23T17:39:30.813Z,49.35
2023-02-23T17:41:38.045Z,61.20
2023-02-23T17:43:45.022Z,53.33
2023-02-23T17:45:52.610Z,50.40
2023-02-23T17:48:00.511Z,45.53
2023-02-23T17:50:10.662Z,48.08
2023-02-23T17:52:17.745Z,48.63
2023-02-23T17:54:25.076Z,51.92
2023-02-23T17:56:32.653Z,48.58
2023-02-23T17:58:40.469Z,48.45
2023-02-23T18:00:47.390Z,45.53
2023-02-23T18:02:54.599Z,52.72
2023-02-23T18:05:01.548Z,48.30
2023-02-23T18:07:10.470Z,58.83
2023-02-23T18:09:17.721Z,45.22
2023-02-23T18:11:24.996Z,50.60
2023-02-23T18:13:34.350Z,49.33
2023-02-23T18:15:41.307Z,46.25
2023-02-23T18:17:48.630Z,45.92
2023-02-23T18:19:55.866Z,57.05
2023-02-23T18:22:03.044Z,48.55
2023-02-23T18:24:11.918Z,47.40
2023-02-23T18:26:21.152Z,53.33
2023-02-23T18:28:28.002Z,52.28
2023-02-23T18:30:35.099Z,52.60
2023-02-23T18:32:42.233Z,47.38
2023-02-23T18:34:49.568Z,46.00
2023-02-23T18:36:56.600Z,50.13
2023-02-23T18:39:04.497Z,54.50
2023-02-23T18:41:13.725Z,49.15
2023-02-23T18:43:20.902Z,51.17
2023-02-23T18:45:27.934Z,47.42
2023-02-23T18:47:35.218Z,49.60
2023-02-23T18:49:42.466Z,50.65
2023-02-23T18:51:50.044Z,49.92
2023-02-23T18:53:57.428Z,42.92
2023-02-23T18:56:08.859Z,54.17
2023-02-23T18:58:17.526Z,48.20
2023-02-23T19:00:25.599Z,55.63
2023-02-23T19:02:32.657Z,50.72
2023-02-23T19:04:40.277Z,55.75
2023-02-23T19:06:49.224Z,51.53
2023-02-23T19:08:58.346Z,48.17
2023-02-23T19:11:05.586Z,48.63
2023-02-23T19:13:12.760Z,48.83
2023-02-23T19:15:21.636Z,45.85
2023-02-23T19:17:29.581Z,59.17
2023-02-23T19:19:36.663Z,49.38
2023-02-23T19:21:44.666Z,49.95
2023-02-23T19:23:51.952Z,53.65
2023-02-23T19:25:59.946Z,55.38
2023-02-23T19:28:06.981Z,56.33
2023-02-23T19:30:15.899Z,49.42
2023-02-23T19:32:24.632Z,63.45
2023-02-23T19:34:32.512Z,51.03
2023-02-23T19:36:39.492Z,52.92
2023-02-23T19:38:46.620Z,57.67
2023-02-23T19:40:53.853Z,56.03
2023-02-23T19:43:00.936Z,70.53
2023-02-23T19:45:08.784Z,78.63
2023-02-23T19:47:16.124Z,65.97
2023-02-23T19:49:25.045Z,68.45
2023-02-23T19:51:32.092Z,60.15
2023-02-23T19:53:39.300Z,74.00
2023-02-23T19:55:46.228Z,70.88
2023-02-23T19:57:54.904Z,73.72
2023-02-23T20:00:01.921Z,64.05
2023-02-23T20:02:15.801Z,77.63
2023-02-23T20:04:24.479Z,73.50
2023-02-23T20:06:33.298Z,75.82
2023-02-23T20:08:40.222Z,67.82
2023-02-23T20:10:47.865Z,65.43
2023-02-23T20:12:55.507Z,68.28
2023-02-23T20:15:02.891Z,69.82
2023-02-23T20:17:10.076Z,65.18
2023-02-23T20:19:17.360Z,62.83
2023-02-23T20:21:27.657Z,65.03
2023-02-23T20:23:35.012Z,62.35
2023-02-23T20:25:45.197Z,62.85
2023-02-23T20:27:53.181Z,61.70
2023-02-23T20:30:01.252Z,65.18
2023-02-23T20:32:09.415Z,61.47
2023-02-23T20:34:16.430Z,63.25
2023-02-23T20:36:26.582Z,63.22
2023-02-23T20:38:33.558Z,68.22
2023-02-23T20:40:41.206Z,61.65
2023-02-23T20:42:48.861Z,61.20
2023-02-23T20:44:56.487Z,63.38
2023-02-23T20:47:03.465Z,58.85
2023-02-23T20:49:12.798Z,61.47
2023-02-23T20:51:20.905Z,58.95
2023-02-23T20:53:31.360Z,55.75
2023-02-23T20:55:38.338Z,54.80
2023-02-23T20:57:47.146Z,58.38
2023-02-23T20:59:54.493Z,59.03
2023-02-23T21:02:02.751Z,55.47
2023-02-23T21:04:10.238Z,58.15
2023-02-23T21:06:17.833Z,55.58
2023-02-23T21:08:24.860Z,57.40
2023-02-23T21:10:37.009Z,59.25
2023-02-23T21:12:44.038Z,54.22
2023-02-23T21:14:52.291Z,56.88
2023-02-23T21:16:59.321Z,58.13
2023-02-23T21:19:09.425Z,59.00
2023-02-23T21:21:17.733Z,54.40
2023-02-23T21:23:24.966Z,49.00
2023-02-23T21:25:34.246Z,54.78
2023-02-23T21:27:41.933Z,59.42
2023-02-23T21:29:49.124Z,58.00
2023-02-23T21:31:56.453Z,56.10
2023-02-23T21:34:06.604Z,49.28
2023-02-23T21:36:14.862Z,65.15
2023-02-23T21:38:24.974Z,60.95
2023-02-23T21:40:34.294Z,56.25
2023-02-23T21:42:41.885Z,54.72
2023-02-23T21:44:49.376Z,57.08
2023-02-23T21:46:56.252Z,59.17
2023-02-23T21:49:10.602Z,56.22
2023-02-23T21:51:19.001Z,61.70
2023-02-23T21:53:26.603Z,51.70
2023-02-23T21:55:36.956Z,53.75
2023-02-23T21:57:44.240Z,56.88
2023-02-23T21:59:51.268Z,58.33
2023-02-23T22:01:58.467Z,62.08
2023-02-23T22:04:05.754Z,56.40
2023-02-23T22:06:13.018Z,59.88
2023-02-23T22:08:20.102Z,68.38
2023-02-23T22:10:28.302Z,60.47
2023-02-23T22:12:37.327Z,55.72
2023-02-23T22:14:44.561Z,61.45
2023-02-23T22:16:51.947Z,60.13
2023-02-23T22:18:59.221Z,70.10
2023-02-23T22:21:06.412Z,86.30
2023-02-23T22:23:14.976Z,77.93
2023-02-23T22:25:22.986Z,70.43
2023-02-23T22:27:30.364Z,81.32
2023-02-23T22:29:39.288Z,81.65
2023-02-23T22:31:46.761Z,79.45
2023-02-23T22:33:53.853Z,68.13
2023-02-23T22:36:03.593Z,72.15
2023-02-23T22:38:10.519Z,68.15
2023-02-23T22:40:18.377Z,92.45
2023-02-23T22:42:25.397Z,83.70
2023-02-23T22:44:32.577Z,119.82
2023-02-23T22:46:41.588Z,118.80
2023-02-23T22:48:49.552Z,106.22
2023-02-23T22:50:56.425Z,146.43
2023-02-23T22:53:04.271Z,177.35
2023-02-23T22:55:12.024Z,178.23
2023-02-23T22:57:19.302Z,125.05
2023-02-23T22:59:26.159Z,116.72
2023-02-23T23:01:33.209Z,165.82
2023-02-23T23:03:43.406Z,172.00
2023-02-23T23:05:53.351Z,188.13
2023-02-23T23:08:00.479Z,148.88
2023-02-23T23:10:10.272Z,151.85
2023-02-23T23:12:19.039Z,158.75
2023-02-23T23:14:26.477Z,193.93
2023-02-23T23:16:34.681Z,156.60
2023-02-23T23:18:44.630Z,137.95
2023-02-23T23:20:51.912Z,142.70
2023-02-23T23:22:59.347Z,154.95
2023-02-23T23:25:12.163Z,128.00
2023-02-23T23:27:20.842Z,124.57
2023-02-23T23:29:29.242Z,138.20
2023-02-23T23:31:37.694Z,120.50
2023-02-23T23:33:50.360Z,113.40
2023-02-23T23:35:57.554Z,134.23
2023-02-23T23:38:04.421Z,188.48
2023-02-23T23:40:16.416Z,203.50
2023-02-23T23:42:23.341Z,172.02
2023-02-23T23:44:31.055Z,154.32
2023-02-23T23:46:39.346Z,162.48
2023-02-23T23:48:48.730Z,182.00
2023-02-23T23:50:57.245Z,177.30
2023-02-23T23:53:05.559Z,173.52
2023-02-23T23:55:13.446Z,242.35
2023-02-23T23:57:20.679Z,224.35
2023-02-23T23:59:28.829Z,218.68
